Deputado Luiz Eduardo Magalhães Airport
SBSV : rendu visible

Aérodrome :











RETROUVEZ-NOUS SUR...

 
LOGIN :

S'inscrire | Disclaimer

   EN    FR    IT 

 









Légende :    VFR   VFR Marginal   IFR   IFR Intensif   IFR Très Intensif
Visi : 
Plafond : 
>= 8 km
>= 3000ft
5 à 8 km
1000 à 3000 ft
1500m à 5 km
500 à 1000 ft
800 à 1500m
200 à 500 ft
< 800m
< 200 ft
Symboles :   Orages  Brouillard  Fortes neiges  Fortes précipitations  Vent > 20 kt






- Altitude de l'aérodrome : 64 ft
- Code IATA : SSA


SBSV - Deputado Luiz Eduardo Magalhães

DERNIER METAR :
  • 270300Z 01002KT 9999 FEW017 BKN070 26/25 Q1013

METARs EXPIRÉS :
  • 270200Z 02005KT 9999 FEW017 BKN070 26/25 Q1013
  • 270100Z 03005KT 9999 FEW017 BKN070 26/25 Q1013

TAF TAF SBSV
Valide du 27 à 00h jusqu'au 28 à 00h UTC


262100Z 2700/2724 06005KT 9999 SCT017 TN24/2707Z TX29/2715Z
BECMG 2703/2704 30005KT
BECMG 2712/2714 13007KT BKN017 FEW027TCU
PROB30 2714/2716 8000 SHRA BKN010 FEW023TCU
BECMG 2721/2723 07005KT RMK PAZ
FIR SBRE / Amérique du Sud



MET'MAP, la Météo Aéronautique d'un coup d'oeil ! - Copyright ORBIFLY Décembre 2007 - Disclaimer

ORBIFLY MET'MAP TEAM :

Programmation & Développement : Alexandra Zaïnal
Sur une idée originale de : Baudouin d'Aumeries
Assistance à la programmation : Marc-Olivier Méhu
Soutien technique & logistique : Manuel Goepfert

Contact : metmap@orbifly.com




SOURCES & CREDITS :

   NOAA       Earth
Advisory